sensor_id;sensor_type;location;lat;lon;timestamp;P1;durP1;ratioP1;P2;durP2;ratioP2
75377;SDS011;63959;51.960;5.886;2022-12-29T00:00:15;5.30;;;2.72;;
75377;SDS011;63959;51.960;5.886;2022-12-29T00:02:47;6.38;;;2.65;;
75377;SDS011;63959;51.960;5.886;2022-12-29T00:05:16;6.32;;;2.65;;
75377;SDS011;63959;51.960;5.886;2022-12-29T00:07:44;5.63;;;2.78;;
75377;SDS011;63959;51.960;5.886;2022-12-29T00:10:13;5.32;;;2.55;;
75377;SDS011;63959;51.960;5.886;2022-12-29T00:12:42;7.90;;;3.08;;
75377;SDS011;63959;51.960;5.886;2022-12-29T00:15:26;5.72;;;2.53;;
75377;SDS011;63959;51.960;5.886;2022-12-29T00:18:09;6.30;;;2.70;;
75377;SDS011;63959;51.960;5.886;2022-12-29T00:20:38;4.57;;;2.13;;
75377;SDS011;63959;51.960;5.886;2022-12-29T00:23:19;5.40;;;2.75;;
75377;SDS011;63959;51.960;5.886;2022-12-29T00:26:02;5.90;;;2.75;;
75377;SDS011;63959;51.960;5.886;2022-12-29T00:28:43;5.85;;;2.63;;
75377;SDS011;63959;51.960;5.886;2022-12-29T00:31:24;4.68;;;2.28;;
75377;SDS011;63959;51.960;5.886;2022-12-29T00:34:10;5.57;;;2.15;;
75377;SDS011;63959;51.960;5.886;2022-12-29T00:36:51;6.45;;;2.78;;
75377;SDS011;63959;51.960;5.886;2022-12-29T00:39:20;5.15;;;2.42;;
75377;SDS011;63959;51.960;5.886;2022-12-29T00:42:02;4.93;;;2.60;;
75377;SDS011;63959;51.960;5.886;2022-12-29T00:44:43;4.53;;;2.17;;
75377;SDS011;63959;51.960;5.886;2022-12-29T00:47:14;6.07;;;2.70;;
75377;SDS011;63959;51.960;5.886;2022-12-29T00:49:45;4.30;;;2.13;;
75377;SDS011;63959;51.960;5.886;2022-12-29T00:52:16;6.18;;;2.42;;
75377;SDS011;63959;51.960;5.886;2022-12-29T00:54:45;4.10;;;1.88;;
75377;SDS011;63959;51.960;5.886;2022-12-29T00:57:13;5.85;;;2.58;;
75377;SDS011;63959;51.960;5.886;2022-12-29T00:59:42;5.65;;;2.40;;
75377;SDS011;63959;51.960;5.886;2022-12-29T01:02:11;5.32;;;2.08;;
75377;SDS011;63959;51.960;5.886;2022-12-29T01:04:39;6.28;;;2.20;;
75377;SDS011;63959;51.960;5.886;2022-12-29T01:07:10;4.93;;;2.33;;
75377;SDS011;63959;51.960;5.886;2022-12-29T01:09:39;5.38;;;2.00;;
75377;SDS011;63959;51.960;5.886;2022-12-29T01:12:20;4.82;;;1.92;;
75377;SDS011;63959;51.960;5.886;2022-12-29T01:15:07;4.85;;;1.50;;
75377;SDS011;63959;51.960;5.886;2022-12-29T01:17:35;4.32;;;1.48;;
75377;SDS011;63959;51.960;5.886;2022-12-29T01:20:05;3.60;;;1.30;;
75377;SDS011;63959;51.960;5.886;2022-12-29T01:22:37;4.20;;;1.10;;
75377;SDS011;63959;51.960;5.886;2022-12-29T01:25:08;3.78;;;1.20;;
75377;SDS011;63959;51.960;5.886;2022-12-29T01:27:37;3.90;;;1.20;;
75377;SDS011;63959;51.960;5.886;2022-12-29T01:30:07;3.13;;;1.10;;
75377;SDS011;63959;51.960;5.886;2022-12-29T01:32:36;4.57;;;1.50;;
75377;SDS011;63959;51.960;5.886;2022-12-29T01:35:05;4.35;;;1.20;;
75377;SDS011;63959;51.960;5.886;2022-12-29T01:37:36;3.90;;;1.70;;
75377;SDS011;63959;51.960;5.886;2022-12-29T01:40:05;2.60;;;1.02;;
75377;SDS011;63959;51.960;5.886;2022-12-29T01:42:34;3.20;;;0.95;;
75377;SDS011;63959;51.960;5.886;2022-12-29T01:45:04;3.55;;;1.20;;
75377;SDS011;63959;51.960;5.886;2022-12-29T01:47:37;3.70;;;1.42;;
75377;SDS011;63959;51.960;5.886;2022-12-29T01:50:08;4.50;;;1.55;;
75377;SDS011;63959;51.960;5.886;2022-12-29T01:52:40;2.78;;;1.20;;
75377;SDS011;63959;51.960;5.886;2022-12-29T01:55:09;2.97;;;1.40;;
75377;SDS011;63959;51.960;5.886;2022-12-29T01:57:40;3.20;;;1.48;;
75377;SDS011;63959;51.960;5.886;2022-12-29T02:00:10;4.93;;;1.70;;
75377;SDS011;63959;51.960;5.886;2022-12-29T02:02:40;3.90;;;1.60;;
75377;SDS011;63959;51.960;5.886;2022-12-29T02:05:10;3.80;;;1.48;;
75377;SDS011;63959;51.960;5.886;2022-12-29T02:07:42;4.35;;;1.90;;
75377;SDS011;63959;51.960;5.886;2022-12-29T02:10:11;4.80;;;1.70;;
75377;SDS011;63959;51.960;5.886;2022-12-29T02:12:41;4.63;;;2.10;;
75377;SDS011;63959;51.960;5.886;2022-12-29T02:15:09;4.95;;;1.95;;
75377;SDS011;63959;51.960;5.886;2022-12-29T02:17:41;3.53;;;1.58;;
75377;SDS011;63959;51.960;5.886;2022-12-29T02:23:01;4.05;;;1.80;;
75377;SDS011;63959;51.960;5.886;2022-12-29T02:25:52;5.53;;;1.40;;
75377;SDS011;63959;51.960;5.886;2022-12-29T02:28:31;3.25;;;1.40;;
75377;SDS011;63959;51.960;5.886;2022-12-29T02:31:09;4.97;;;1.40;;
75377;SDS011;63959;51.960;5.886;2022-12-29T02:33:44;3.95;;;1.58;;
75377;SDS011;63959;51.960;5.886;2022-12-29T02:36:15;6.75;;;1.60;;
75377;SDS011;63959;51.960;5.886;2022-12-29T02:38:50;4.43;;;1.30;;
75377;SDS011;63959;51.960;5.886;2022-12-29T02:41:21;3.70;;;1.10;;
75377;SDS011;63959;51.960;5.886;2022-12-29T02:43:54;4.18;;;1.08;;
75377;SDS011;63959;51.960;5.886;2022-12-29T02:46:28;4.45;;;1.10;;
75377;SDS011;63959;51.960;5.886;2022-12-29T02:49:04;2.53;;;1.02;;
75377;SDS011;63959;51.960;5.886;2022-12-29T02:51:35;2.65;;;0.93;;
75377;SDS011;63959;51.960;5.886;2022-12-29T02:54:04;2.88;;;0.85;;
75377;SDS011;63959;51.960;5.886;2022-12-29T02:56:46;3.53;;;1.00;;
75377;SDS011;63959;51.960;5.886;2022-12-29T02:59:15;2.40;;;0.80;;
75377;SDS011;63959;51.960;5.886;2022-12-29T03:01:53;3.38;;;1.00;;
75377;SDS011;63959;51.960;5.886;2022-12-29T03:04:37;3.42;;;1.00;;
75377;SDS011;63959;51.960;5.886;2022-12-29T03:07:09;3.45;;;0.90;;
75377;SDS011;63959;51.960;5.886;2022-12-29T03:09:40;3.67;;;0.90;;
75377;SDS011;63959;51.960;5.886;2022-12-29T03:12:14;3.90;;;0.90;;
75377;SDS011;63959;51.960;5.886;2022-12-29T03:14:46;3.45;;;0.80;;
75377;SDS011;63959;51.960;5.886;2022-12-29T03:17:34;4.13;;;0.80;;
75377;SDS011;63959;51.960;5.886;2022-12-29T03:20:07;2.47;;;0.82;;
75377;SDS011;63959;51.960;5.886;2022-12-29T03:22:39;1.63;;;0.70;;
75377;SDS011;63959;51.960;5.886;2022-12-29T03:25:13;2.17;;;0.80;;
75377;SDS011;63959;51.960;5.886;2022-12-29T03:27:50;3.45;;;0.90;;
75377;SDS011;63959;51.960;5.886;2022-12-29T03:30:20;3.25;;;1.10;;
75377;SDS011;63959;51.960;5.886;2022-12-29T03:32:53;6.57;;;1.10;;
75377;SDS011;63959;51.960;5.886;2022-12-29T03:35:26;2.55;;;1.15;;
75377;SDS011;63959;51.960;5.886;2022-12-29T03:37:58;3.83;;;0.80;;
75377;SDS011;63959;51.960;5.886;2022-12-29T03:40:28;3.50;;;0.80;;
75377;SDS011;63959;51.960;5.886;2022-12-29T03:43:00;4.50;;;0.90;;
75377;SDS011;63959;51.960;5.886;2022-12-29T03:45:31;3.15;;;0.90;;
75377;SDS011;63959;51.960;5.886;2022-12-29T03:48:02;3.30;;;0.70;;
75377;SDS011;63959;51.960;5.886;2022-12-29T03:50:32;2.50;;;0.70;;
75377;SDS011;63959;51.960;5.886;2022-12-29T03:53:02;4.32;;;0.98;;
75377;SDS011;63959;51.960;5.886;2022-12-29T03:55:30;3.30;;;0.70;;
75377;SDS011;63959;51.960;5.886;2022-12-29T03:58:00;5.20;;;1.27;;
75377;SDS011;63959;51.960;5.886;2022-12-29T04:00:57;5.82;;;1.00;;
75377;SDS011;63959;51.960;5.886;2022-12-29T04:03:29;3.20;;;0.90;;
75377;SDS011;63959;51.960;5.886;2022-12-29T04:05:58;5.05;;;1.20;;
75377;SDS011;63959;51.960;5.886;2022-12-29T04:08:37;2.85;;;0.90;;
75377;SDS011;63959;51.960;5.886;2022-12-29T04:11:06;2.65;;;0.80;;
75377;SDS011;63959;51.960;5.886;2022-12-29T04:13:47;2.92;;;0.90;;
75377;SDS011;63959;51.960;5.886;2022-12-29T04:16:22;3.60;;;1.00;;
75377;SDS011;63959;51.960;5.886;2022-12-29T04:18:57;5.13;;;1.00;;
75377;SDS011;63959;51.960;5.886;2022-12-29T04:21:36;3.15;;;0.93;;
75377;SDS011;63959;51.960;5.886;2022-12-29T04:24:06;2.67;;;0.90;;
75377;SDS011;63959;51.960;5.886;2022-12-29T04:26:39;5.63;;;1.10;;
75377;SDS011;63959;51.960;5.886;2022-12-29T04:29:27;3.85;;;0.90;;
75377;SDS011;63959;51.960;5.886;2022-12-29T04:32:36;3.65;;;0.98;;
75377;SDS011;63959;51.960;5.886;2022-12-29T04:38:07;4.20;;;0.95;;
75377;SDS011;63959;51.960;5.886;2022-12-29T04:40:37;5.15;;;1.30;;
75377;SDS011;63959;51.960;5.886;2022-12-29T04:46:37;3.33;;;1.08;;
75377;SDS011;63959;51.960;5.886;2022-12-29T04:49:31;5.22;;;1.35;;
75377;SDS011;63959;51.960;5.886;2022-12-29T04:52:31;6.85;;;1.50;;
75377;SDS011;63959;51.960;5.886;2022-12-29T04:55:04;4.85;;;1.30;;
75377;SDS011;63959;51.960;5.886;2022-12-29T04:57:33;4.75;;;1.30;;
75377;SDS011;63959;51.960;5.886;2022-12-29T05:00:03;7.55;;;1.30;;
75377;SDS011;63959;51.960;5.886;2022-12-29T05:02:32;5.38;;;1.10;;
75377;SDS011;63959;51.960;5.886;2022-12-29T05:05:00;6.65;;;1.20;;
75377;SDS011;63959;51.960;5.886;2022-12-29T05:07:30;5.70;;;1.30;;
75377;SDS011;63959;51.960;5.886;2022-12-29T05:09:59;6.07;;;1.30;;
75377;SDS011;63959;51.960;5.886;2022-12-29T05:12:32;5.45;;;1.20;;
75377;SDS011;63959;51.960;5.886;2022-12-29T05:15:01;8.38;;;1.80;;
75377;SDS011;63959;51.960;5.886;2022-12-29T05:17:30;4.68;;;1.30;;
75377;SDS011;63959;51.960;5.886;2022-12-29T05:19:59;3.63;;;0.98;;
75377;SDS011;63959;51.960;5.886;2022-12-29T05:22:28;7.72;;;1.48;;
75377;SDS011;63959;51.960;5.886;2022-12-29T05:24:57;5.43;;;1.25;;
75377;SDS011;63959;51.960;5.886;2022-12-29T05:27:26;3.63;;;1.20;;
75377;SDS011;63959;51.960;5.886;2022-12-29T05:30:10;4.97;;;1.42;;
75377;SDS011;63959;51.960;5.886;2022-12-29T05:32:39;6.15;;;1.33;;
75377;SDS011;63959;51.960;5.886;2022-12-29T05:35:08;4.88;;;1.50;;
75377;SDS011;63959;51.960;5.886;2022-12-29T05:37:37;4.25;;;1.38;;
75377;SDS011;63959;51.960;5.886;2022-12-29T05:40:07;4.75;;;1.30;;
75377;SDS011;63959;51.960;5.886;2022-12-29T05:42:36;4.38;;;1.38;;
75377;SDS011;63959;51.960;5.886;2022-12-29T05:45:19;3.90;;;1.10;;
75377;SDS011;63959;51.960;5.886;2022-12-29T05:48:16;4.43;;;1.30;;
75377;SDS011;63959;51.960;5.886;2022-12-29T05:51:09;6.95;;;1.20;;
75377;SDS011;63959;51.960;5.886;2022-12-29T05:53:49;4.22;;;1.10;;
75377;SDS011;63959;51.960;5.886;2022-12-29T05:56:24;5.28;;;1.38;;
75377;SDS011;63959;51.960;5.886;2022-12-29T05:59:05;6.15;;;1.52;;
75377;SDS011;63959;51.960;5.886;2022-12-29T06:01:36;7.13;;;1.50;;
75377;SDS011;63959;51.960;5.886;2022-12-29T06:04:05;6.28;;;1.35;;
75377;SDS011;63959;51.960;5.886;2022-12-29T06:06:51;4.70;;;1.35;;
75377;SDS011;63959;51.960;5.886;2022-12-29T06:09:32;7.53;;;2.05;;
75377;SDS011;63959;51.960;5.886;2022-12-29T06:12:03;5.47;;;1.10;;
75377;SDS011;63959;51.960;5.886;2022-12-29T06:14:47;6.65;;;1.30;;
75377;SDS011;63959;51.960;5.886;2022-12-29T06:17:24;5.35;;;0.95;;
75377;SDS011;63959;51.960;5.886;2022-12-29T06:19:53;5.60;;;1.10;;
75377;SDS011;63959;51.960;5.886;2022-12-29T06:22:30;6.10;;;1.25;;
75377;SDS011;63959;51.960;5.886;2022-12-29T06:25:01;6.03;;;1.13;;
75377;SDS011;63959;51.960;5.886;2022-12-29T06:27:32;7.13;;;1.20;;
75377;SDS011;63959;51.960;5.886;2022-12-29T06:30:01;7.75;;;1.27;;
75377;SDS011;63959;51.960;5.886;2022-12-29T06:32:33;6.35;;;1.30;;
75377;SDS011;63959;51.960;5.886;2022-12-29T06:35:16;9.82;;;1.40;;
75377;SDS011;63959;51.960;5.886;2022-12-29T06:37:49;7.20;;;1.10;;
75377;SDS011;63959;51.960;5.886;2022-12-29T06:40:20;9.50;;;1.90;;
75377;SDS011;63959;51.960;5.886;2022-12-29T06:43:08;5.30;;;1.00;;
75377;SDS011;63959;51.960;5.886;2022-12-29T06:45:59;5.88;;;1.17;;
75377;SDS011;63959;51.960;5.886;2022-12-29T06:48:31;5.22;;;1.10;;
75377;SDS011;63959;51.960;5.886;2022-12-29T06:51:03;6.18;;;1.10;;
75377;SDS011;63959;51.960;5.886;2022-12-29T06:53:44;6.15;;;1.02;;
75377;SDS011;63959;51.960;5.886;2022-12-29T06:56:13;7.53;;;1.40;;
75377;SDS011;63959;51.960;5.886;2022-12-29T06:58:51;5.50;;;1.10;;
75377;SDS011;63959;51.960;5.886;2022-12-29T07:01:24;5.57;;;1.25;;
75377;SDS011;63959;51.960;5.886;2022-12-29T07:03:56;2.83;;;0.82;;
75377;SDS011;63959;51.960;5.886;2022-12-29T07:06:27;5.10;;;0.95;;
75377;SDS011;63959;51.960;5.886;2022-12-29T07:08:56;3.63;;;0.90;;
75377;SDS011;63959;51.960;5.886;2022-12-29T07:14:36;4.55;;;1.05;;
75377;SDS011;63959;51.960;5.886;2022-12-29T07:17:05;5.60;;;1.40;;
75377;SDS011;63959;51.960;5.886;2022-12-29T07:19:39;5.20;;;1.00;;
75377;SDS011;63959;51.960;5.886;2022-12-29T07:22:16;4.38;;;1.20;;
75377;SDS011;63959;51.960;5.886;2022-12-29T07:24:54;4.38;;;0.82;;
75377;SDS011;63959;51.960;5.886;2022-12-29T07:27:30;7.75;;;1.38;;
75377;SDS011;63959;51.960;5.886;2022-12-29T07:30:07;5.80;;;1.20;;
75377;SDS011;63959;51.960;5.886;2022-12-29T07:32:36;7.25;;;1.55;;
75377;SDS011;63959;51.960;5.886;2022-12-29T07:35:12;7.18;;;1.30;;
75377;SDS011;63959;51.960;5.886;2022-12-29T07:37:41;5.10;;;1.10;;
75377;SDS011;63959;51.960;5.886;2022-12-29T07:40:17;7.43;;;1.38;;
75377;SDS011;63959;51.960;5.886;2022-12-29T07:42:46;6.60;;;1.13;;
75377;SDS011;63959;51.960;5.886;2022-12-29T07:45:25;7.05;;;1.10;;
75377;SDS011;63959;51.960;5.886;2022-12-29T07:51:14;5.68;;;1.20;;
75377;SDS011;63959;51.960;5.886;2022-12-29T07:59:59;8.63;;;1.30;;
75377;SDS011;63959;51.960;5.886;2022-12-29T08:02:37;8.57;;;1.30;;
75377;SDS011;63959;51.960;5.886;2022-12-29T08:05:08;7.72;;;1.55;;
75377;SDS011;63959;51.960;5.886;2022-12-29T08:07:39;8.15;;;1.33;;
75377;SDS011;63959;51.960;5.886;2022-12-29T08:10:14;7.63;;;1.42;;
75377;SDS011;63959;51.960;5.886;2022-12-29T08:12:46;7.05;;;1.05;;
75377;SDS011;63959;51.960;5.886;2022-12-29T08:15:21;9.18;;;1.33;;
75377;SDS011;63959;51.960;5.886;2022-12-29T08:17:52;8.50;;;1.13;;
75377;SDS011;63959;51.960;5.886;2022-12-29T08:20:21;8.75;;;1.45;;
75377;SDS011;63959;51.960;5.886;2022-12-29T08:23:06;8.50;;;2.05;;
75377;SDS011;63959;51.960;5.886;2022-12-29T08:25:45;6.57;;;1.10;;
75377;SDS011;63959;51.960;5.886;2022-12-29T08:28:28;8.55;;;1.30;;
75377;SDS011;63959;51.960;5.886;2022-12-29T08:31:21;7.90;;;1.27;;
75377;SDS011;63959;51.960;5.886;2022-12-29T08:33:53;5.88;;;1.30;;
75377;SDS011;63959;51.960;5.886;2022-12-29T08:36:22;6.50;;;1.45;;
75377;SDS011;63959;51.960;5.886;2022-12-29T08:41:49;9.43;;;1.30;;
75377;SDS011;63959;51.960;5.886;2022-12-29T08:47:50;5.72;;;1.05;;
75377;SDS011;63959;51.960;5.886;2022-12-29T08:53:50;6.28;;;1.40;;
75377;SDS011;63959;51.960;5.886;2022-12-29T08:56:40;7.70;;;1.50;;
75377;SDS011;63959;51.960;5.886;2022-12-29T08:59:25;7.50;;;1.48;;
75377;SDS011;63959;51.960;5.886;2022-12-29T09:02:08;6.68;;;1.27;;
75377;SDS011;63959;51.960;5.886;2022-12-29T09:05:15;8.15;;;1.60;;
75377;SDS011;63959;51.960;5.886;2022-12-29T09:07:44;7.82;;;1.45;;
75377;SDS011;63959;51.960;5.886;2022-12-29T09:10:29;11.05;;;1.45;;
75377;SDS011;63959;51.960;5.886;2022-12-29T09:13:01;7.30;;;1.60;;
75377;SDS011;63959;51.960;5.886;2022-12-29T09:18:23;8.98;;;1.70;;
75377;SDS011;63959;51.960;5.886;2022-12-29T09:20:58;13.32;;;1.65;;
75377;SDS011;63959;51.960;5.886;2022-12-29T09:23:27;6.78;;;1.52;;
75377;SDS011;63959;51.960;5.886;2022-12-29T09:26:16;9.00;;;1.70;;
75377;SDS011;63959;51.960;5.886;2022-12-29T09:32:27;6.53;;;1.30;;
75377;SDS011;63959;51.960;5.886;2022-12-29T09:35:26;6.80;;;1.10;;
75377;SDS011;63959;51.960;5.886;2022-12-29T09:38:13;7.68;;;1.40;;
75377;SDS011;63959;51.960;5.886;2022-12-29T09:40:49;10.05;;;1.73;;
75377;SDS011;63959;51.960;5.886;2022-12-29T09:46:43;10.13;;;1.48;;
75377;SDS011;63959;51.960;5.886;2022-12-29T09:49:23;9.35;;;2.05;;
75377;SDS011;63959;51.960;5.886;2022-12-29T09:55:44;10.10;;;1.83;;
75377;SDS011;63959;51.960;5.886;2022-12-29T10:01:28;11.50;;;1.83;;
75377;SDS011;63959;51.960;5.886;2022-12-29T10:03:58;8.32;;;1.88;;
75377;SDS011;63959;51.960;5.886;2022-12-29T10:26:04;7.68;;;1.50;;
75377;SDS011;63959;51.960;5.886;2022-12-29T10:28:52;9.20;;;1.60;;
75377;SDS011;63959;51.960;5.886;2022-12-29T10:31:25;6.25;;;1.00;;
75377;SDS011;63959;51.960;5.886;2022-12-29T10:34:13;7.32;;;1.30;;
75377;SDS011;63959;51.960;5.886;2022-12-29T10:36:46;7.47;;;1.83;;
75377;SDS011;63959;51.960;5.886;2022-12-29T10:39:22;7.75;;;1.60;;
75377;SDS011;63959;51.960;5.886;2022-12-29T10:41:59;5.78;;;1.23;;
75377;SDS011;63959;51.960;5.886;2022-12-29T10:44:41;7.13;;;1.45;;
75377;SDS011;63959;51.960;5.886;2022-12-29T10:47:15;6.65;;;1.98;;
75377;SDS011;63959;51.960;5.886;2022-12-29T10:49:47;6.32;;;1.80;;
75377;SDS011;63959;51.960;5.886;2022-12-29T10:52:21;6.63;;;1.67;;
75377;SDS011;63959;51.960;5.886;2022-12-29T10:54:52;7.85;;;1.45;;
75377;SDS011;63959;51.960;5.886;2022-12-29T10:57:30;8.45;;;2.05;;
75377;SDS011;63959;51.960;5.886;2022-12-29T11:00:00;8.75;;;1.92;;
75377;SDS011;63959;51.960;5.886;2022-12-29T11:02:37;8.57;;;2.20;;
75377;SDS011;63959;51.960;5.886;2022-12-29T11:05:10;10.18;;;1.60;;
75377;SDS011;63959;51.960;5.886;2022-12-29T11:07:46;10.05;;;1.85;;
75377;SDS011;63959;51.960;5.886;2022-12-29T11:10:16;5.13;;;1.75;;
75377;SDS011;63959;51.960;5.886;2022-12-29T11:12:58;8.27;;;1.83;;
75377;SDS011;63959;51.960;5.886;2022-12-29T11:15:38;10.40;;;1.92;;
75377;SDS011;63959;51.960;5.886;2022-12-29T11:18:16;11.65;;;2.30;;
75377;SDS011;63959;51.960;5.886;2022-12-29T11:20:49;10.27;;;2.25;;
75377;SDS011;63959;51.960;5.886;2022-12-29T11:23:32;6.90;;;1.90;;
75377;SDS011;63959;51.960;5.886;2022-12-29T11:26:14;10.75;;;2.20;;
75377;SDS011;63959;51.960;5.886;2022-12-29T11:28:47;13.10;;;2.92;;
75377;SDS011;63959;51.960;5.886;2022-12-29T11:31:16;9.50;;;2.80;;
75377;SDS011;63959;51.960;5.886;2022-12-29T11:33:51;10.38;;;2.45;;
75377;SDS011;63959;51.960;5.886;2022-12-29T11:36:30;10.90;;;3.05;;
75377;SDS011;63959;51.960;5.886;2022-12-29T11:39:05;13.80;;;2.97;;
75377;SDS011;63959;51.960;5.886;2022-12-29T11:41:33;9.88;;;2.45;;
75377;SDS011;63959;51.960;5.886;2022-12-29T11:44:11;14.75;;;3.83;;
75377;SDS011;63959;51.960;5.886;2022-12-29T11:49:41;10.55;;;2.42;;
75377;SDS011;63959;51.960;5.886;2022-12-29T11:52:22;10.32;;;2.40;;
75377;SDS011;63959;51.960;5.886;2022-12-29T11:54:52;11.73;;;2.97;;
75377;SDS011;63959;51.960;5.886;2022-12-29T11:57:22;12.50;;;2.95;;
75377;SDS011;63959;51.960;5.886;2022-12-29T11:59:57;9.07;;;2.63;;
75377;SDS011;63959;51.960;5.886;2022-12-29T12:03:03;11.32;;;2.95;;
75377;SDS011;63959;51.960;5.886;2022-12-29T12:05:37;9.25;;;2.60;;
75377;SDS011;63959;51.960;5.886;2022-12-29T12:08:31;9.20;;;3.00;;
75377;SDS011;63959;51.960;5.886;2022-12-29T12:11:10;10.05;;;2.70;;
75377;SDS011;63959;51.960;5.886;2022-12-29T12:13:42;11.05;;;2.97;;
75377;SDS011;63959;51.960;5.886;2022-12-29T12:16:18;12.23;;;2.78;;
75377;SDS011;63959;51.960;5.886;2022-12-29T12:21:52;10.48;;;2.90;;
75377;SDS011;63959;51.960;5.886;2022-12-29T12:24:30;12.45;;;2.80;;
75377;SDS011;63959;51.960;5.886;2022-12-29T12:27:03;11.32;;;2.88;;
75377;SDS011;63959;51.960;5.886;2022-12-29T12:32:08;9.20;;;2.70;;
75377;SDS011;63959;51.960;5.886;2022-12-29T12:34:41;11.27;;;3.63;;
75377;SDS011;63959;51.960;5.886;2022-12-29T12:40:05;10.60;;;3.33;;
75377;SDS011;63959;51.960;5.886;2022-12-29T12:42:40;10.50;;;2.90;;
75377;SDS011;63959;51.960;5.886;2022-12-29T12:45:21;10.27;;;2.70;;
75377;SDS011;63959;51.960;5.886;2022-12-29T12:47:58;10.02;;;2.95;;
75377;SDS011;63959;51.960;5.886;2022-12-29T12:53:10;10.68;;;2.92;;
75377;SDS011;63959;51.960;5.886;2022-12-29T12:55:56;10.70;;;2.67;;
75377;SDS011;63959;51.960;5.886;2022-12-29T12:58:30;8.00;;;2.50;;
75377;SDS011;63959;51.960;5.886;2022-12-29T13:01:04;14.45;;;3.17;;
75377;SDS011;63959;51.960;5.886;2022-12-29T13:03:44;13.98;;;2.90;;
75377;SDS011;63959;51.960;5.886;2022-12-29T13:06:18;10.93;;;2.60;;
75377;SDS011;63959;51.960;5.886;2022-12-29T13:09:03;10.40;;;3.22;;
75377;SDS011;63959;51.960;5.886;2022-12-29T13:11:48;9.93;;;2.90;;
75377;SDS011;63959;51.960;5.886;2022-12-29T13:14:24;13.50;;;2.80;;
75377;SDS011;63959;51.960;5.886;2022-12-29T13:17:12;11.60;;;2.83;;
75377;SDS011;63959;51.960;5.886;2022-12-29T13:19:45;13.40;;;2.97;;
75377;SDS011;63959;51.960;5.886;2022-12-29T13:22:18;12.30;;;3.03;;
75377;SDS011;63959;51.960;5.886;2022-12-29T13:24:52;10.27;;;3.05;;
75377;SDS011;63959;51.960;5.886;2022-12-29T13:27:27;12.20;;;2.67;;
75377;SDS011;63959;51.960;5.886;2022-12-29T13:30:00;12.65;;;3.08;;
75377;SDS011;63959;51.960;5.886;2022-12-29T13:32:34;12.20;;;3.40;;
75377;SDS011;63959;51.960;5.886;2022-12-29T13:35:13;12.75;;;2.88;;
75377;SDS011;63959;51.960;5.886;2022-12-29T13:37:46;12.38;;;3.63;;
75377;SDS011;63959;51.960;5.886;2022-12-29T13:40:16;10.23;;;2.17;;
75377;SDS011;63959;51.960;5.886;2022-12-29T13:42:49;15.70;;;2.90;;
75377;SDS011;63959;51.960;5.886;2022-12-29T13:45:19;8.50;;;2.53;;
75377;SDS011;63959;51.960;5.886;2022-12-29T13:47:51;11.18;;;3.15;;
75377;SDS011;63959;51.960;5.886;2022-12-29T13:50:21;13.48;;;2.80;;
75377;SDS011;63959;51.960;5.886;2022-12-29T13:52:59;11.45;;;2.70;;
75377;SDS011;63959;51.960;5.886;2022-12-29T13:55:31;11.77;;;3.20;;
75377;SDS011;63959;51.960;5.886;2022-12-29T13:58:05;12.98;;;2.88;;
75377;SDS011;63959;51.960;5.886;2022-12-29T14:00:41;8.00;;;2.25;;
75377;SDS011;63959;51.960;5.886;2022-12-29T14:03:18;7.68;;;2.10;;
75377;SDS011;63959;51.960;5.886;2022-12-29T14:06:05;10.07;;;2.63;;
75377;SDS011;63959;51.960;5.886;2022-12-29T14:08:45;9.70;;;2.47;;
75377;SDS011;63959;51.960;5.886;2022-12-29T14:11:15;10.05;;;2.58;;
75377;SDS011;63959;51.960;5.886;2022-12-29T14:13:49;9.30;;;2.50;;
75377;SDS011;63959;51.960;5.886;2022-12-29T14:16:26;9.07;;;2.28;;
75377;SDS011;63959;51.960;5.886;2022-12-29T14:18:56;9.27;;;2.30;;
75377;SDS011;63959;51.960;5.886;2022-12-29T14:21:32;7.03;;;1.90;;
75377;SDS011;63959;51.960;5.886;2022-12-29T14:26:50;4.93;;;1.30;;
75377;SDS011;63959;51.960;5.886;2022-12-29T14:32:09;6.68;;;1.65;;
75377;SDS011;63959;51.960;5.886;2022-12-29T14:35:00;5.72;;;1.42;;
75377;SDS011;63959;51.960;5.886;2022-12-29T14:37:30;5.07;;;1.50;;
75377;SDS011;63959;51.960;5.886;2022-12-29T14:40:03;5.55;;;1.50;;
75377;SDS011;63959;51.960;5.886;2022-12-29T14:42:32;6.53;;;1.70;;
75377;SDS011;63959;51.960;5.886;2022-12-29T14:45:02;7.22;;;1.85;;
75377;SDS011;63959;51.960;5.886;2022-12-29T14:50:07;6.80;;;1.42;;
75377;SDS011;63959;51.960;5.886;2022-12-29T14:52:41;3.20;;;1.30;;
75377;SDS011;63959;51.960;5.886;2022-12-29T14:57:57;4.55;;;1.75;;
75377;SDS011;63959;51.960;5.886;2022-12-29T15:00:29;5.95;;;1.75;;
75377;SDS011;63959;51.960;5.886;2022-12-29T15:03:02;5.60;;;1.55;;
75377;SDS011;63959;51.960;5.886;2022-12-29T15:05:36;7.78;;;1.90;;
75377;SDS011;63959;51.960;5.886;2022-12-29T15:08:09;5.55;;;1.83;;
75377;SDS011;63959;51.960;5.886;2022-12-29T15:10:47;6.55;;;1.73;;
75377;SDS011;63959;51.960;5.886;2022-12-29T15:13:18;7.03;;;1.73;;
75377;SDS011;63959;51.960;5.886;2022-12-29T15:15:50;7.75;;;2.53;;
75377;SDS011;63959;51.960;5.886;2022-12-29T15:18:24;6.20;;;1.90;;
75377;SDS011;63959;51.960;5.886;2022-12-29T15:21:13;7.47;;;1.60;;
75377;SDS011;63959;51.960;5.886;2022-12-29T15:23:44;9.43;;;2.30;;
75377;SDS011;63959;51.960;5.886;2022-12-29T15:26:17;9.50;;;2.35;;
75377;SDS011;63959;51.960;5.886;2022-12-29T15:28:48;8.00;;;2.22;;
75377;SDS011;63959;51.960;5.886;2022-12-29T15:31:29;7.93;;;2.08;;
75377;SDS011;63959;51.960;5.886;2022-12-29T15:34:02;10.57;;;2.60;;
75377;SDS011;63959;51.960;5.886;2022-12-29T15:36:36;6.80;;;2.20;;
75377;SDS011;63959;51.960;5.886;2022-12-29T15:41:36;8.18;;;2.30;;
75377;SDS011;63959;51.960;5.886;2022-12-29T15:44:20;9.32;;;2.35;;
75377;SDS011;63959;51.960;5.886;2022-12-29T15:49:23;11.60;;;2.33;;
75377;SDS011;63959;51.960;5.886;2022-12-29T15:51:55;8.20;;;1.80;;
75377;SDS011;63959;51.960;5.886;2022-12-29T15:54:30;9.52;;;1.70;;
75377;SDS011;63959;51.960;5.886;2022-12-29T15:57:00;6.85;;;1.70;;
75377;SDS011;63959;51.960;5.886;2022-12-29T15:59:29;10.18;;;2.60;;
75377;SDS011;63959;51.960;5.886;2022-12-29T16:02:00;7.80;;;1.60;;
75377;SDS011;63959;51.960;5.886;2022-12-29T16:04:30;7.70;;;1.92;;
75377;SDS011;63959;51.960;5.886;2022-12-29T16:07:03;10.98;;;2.28;;
75377;SDS011;63959;51.960;5.886;2022-12-29T16:09:34;9.40;;;2.53;;
75377;SDS011;63959;51.960;5.886;2022-12-29T16:12:04;9.98;;;1.80;;
75377;SDS011;63959;51.960;5.886;2022-12-29T16:14:36;7.30;;;1.65;;
75377;SDS011;63959;51.960;5.886;2022-12-29T16:17:08;9.57;;;1.90;;
75377;SDS011;63959;51.960;5.886;2022-12-29T16:19:39;8.68;;;1.55;;
75377;SDS011;63959;51.960;5.886;2022-12-29T16:22:12;7.60;;;1.83;;
75377;SDS011;63959;51.960;5.886;2022-12-29T16:24:46;10.88;;;2.05;;
75377;SDS011;63959;51.960;5.886;2022-12-29T16:27:16;13.73;;;2.42;;
75377;SDS011;63959;51.960;5.886;2022-12-29T16:29:48;7.28;;;1.40;;
75377;SDS011;63959;51.960;5.886;2022-12-29T16:32:26;8.85;;;2.17;;
75377;SDS011;63959;51.960;5.886;2022-12-29T16:35:02;7.72;;;1.90;;
75377;SDS011;63959;51.960;5.886;2022-12-29T16:37:35;9.70;;;1.95;;
75377;SDS011;63959;51.960;5.886;2022-12-29T16:42:57;10.75;;;2.50;;
75377;SDS011;63959;51.960;5.886;2022-12-29T16:48:23;10.52;;;1.88;;
75377;SDS011;63959;51.960;5.886;2022-12-29T16:50:59;9.82;;;2.20;;
75377;SDS011;63959;51.960;5.886;2022-12-29T16:53:32;8.73;;;1.92;;
75377;SDS011;63959;51.960;5.886;2022-12-29T16:56:04;5.88;;;1.90;;
75377;SDS011;63959;51.960;5.886;2022-12-29T16:58:33;8.13;;;2.10;;
75377;SDS011;63959;51.960;5.886;2022-12-29T17:01:03;6.53;;;2.00;;
75377;SDS011;63959;51.960;5.886;2022-12-29T17:03:51;8.10;;;1.77;;
75377;SDS011;63959;51.960;5.886;2022-12-29T17:06:21;7.15;;;1.90;;
75377;SDS011;63959;51.960;5.886;2022-12-29T17:08:55;7.85;;;1.90;;
75377;SDS011;63959;51.960;5.886;2022-12-29T17:11:26;7.95;;;1.60;;
75377;SDS011;63959;51.960;5.886;2022-12-29T17:17:01;6.60;;;1.95;;